sensor_id;sensor_type;location;lat;lon;timestamp;temperature;humidity
81366;DHT22;70822;51.990;22.766;2023-12-20T00:10:18;6.40;84.20
81366;DHT22;70822;51.990;22.766;2023-12-20T00:25:23;6.30;85.20
81366;DHT22;70822;51.990;22.766;2023-12-20T00:40:28;6.00;86.20
81366;DHT22;70822;51.990;22.766;2023-12-20T00:55:33;6.10;87.00
81366;DHT22;70822;51.990;22.766;2023-12-20T01:10:38;6.00;87.30
81366;DHT22;70822;51.990;22.766;2023-12-20T01:25:43;5.90;87.80
81366;DHT22;70822;51.990;22.766;2023-12-20T01:40:47;5.80;88.00
81366;DHT22;70822;51.990;22.766;2023-12-20T01:55:55;5.90;88.20
81366;DHT22;70822;51.990;22.766;2023-12-20T02:11:00;5.70;88.30
81366;DHT22;70822;51.990;22.766;2023-12-20T02:26:05;5.90;88.20
81366;DHT22;70822;51.990;22.766;2023-12-20T02:41:11;6.10;88.30
81366;DHT22;70822;51.990;22.766;2023-12-20T02:56:16;5.80;88.30
81366;DHT22;70822;51.990;22.766;2023-12-20T03:11:21;5.90;88.10
81366;DHT22;70822;51.990;22.766;2023-12-20T03:26:26;5.90;88.10
81366;DHT22;70822;51.990;22.766;2023-12-20T03:41:31;5.90;88.30
81366;DHT22;70822;51.990;22.766;2023-12-20T03:56:36;5.90;88.40
81366;DHT22;70822;51.990;22.766;2023-12-20T04:11:41;5.90;88.20
81366;DHT22;70822;51.990;22.766;2023-12-20T04:26:45;5.80;88.20
81366;DHT22;70822;51.990;22.766;2023-12-20T04:41:50;5.60;88.30
81366;DHT22;70822;51.990;22.766;2023-12-20T04:56:55;5.50;88.20
81366;DHT22;70822;51.990;22.766;2023-12-20T05:12:00;5.70;88.10
81366;DHT22;70822;51.990;22.766;2023-12-20T05:27:05;5.50;87.90
81366;DHT22;70822;51.990;22.766;2023-12-20T05:42:10;5.60;87.80
81366;DHT22;70822;51.990;22.766;2023-12-20T05:57:14;5.60;87.90
81366;DHT22;70822;51.990;22.766;2023-12-20T06:12:19;5.80;87.80
81366;DHT22;70822;51.990;22.766;2023-12-20T06:27:25;5.70;87.90
81366;DHT22;70822;51.990;22.766;2023-12-20T06:42:29;5.80;87.90
81366;DHT22;70822;51.990;22.766;2023-12-20T06:57:34;5.50;88.00
81366;DHT22;70822;51.990;22.766;2023-12-20T07:12:40;5.70;88.10
81366;DHT22;70822;51.990;22.766;2023-12-20T07:27:45;5.80;88.20
81366;DHT22;70822;51.990;22.766;2023-12-20T07:42:50;5.80;88.20
81366;DHT22;70822;51.990;22.766;2023-12-20T07:57:55;6.10;88.30
81366;DHT22;70822;51.990;22.766;2023-12-20T08:12:59;5.90;88.10
81366;DHT22;70822;51.990;22.766;2023-12-20T08:28:06;6.10;88.00
81366;DHT22;70822;51.990;22.766;2023-12-20T08:43:13;6.00;88.30
81366;DHT22;70822;51.990;22.766;2023-12-20T08:58:19;6.20;88.60
81366;DHT22;70822;51.990;22.766;2023-12-20T09:13:28;6.60;88.30
81366;DHT22;70822;51.990;22.766;2023-12-20T09:28:34;6.70;88.20
81366;DHT22;70822;51.990;22.766;2023-12-20T09:43:42;6.60;87.80
81366;DHT22;70822;51.990;22.766;2023-12-20T09:58:46;6.40;87.90
81366;DHT22;70822;51.990;22.766;2023-12-20T10:13:52;6.50;88.20
81366;DHT22;70822;51.990;22.766;2023-12-20T10:29:05;6.30;88.00
81366;DHT22;70822;51.990;22.766;2023-12-20T10:44:11;6.50;87.60
81366;DHT22;70822;51.990;22.766;2023-12-20T10:59:20;6.20;87.60
81366;DHT22;70822;51.990;22.766;2023-12-20T11:14:31;6.20;87.60
81366;DHT22;70822;51.990;22.766;2023-12-20T11:29:39;6.20;87.90
81366;DHT22;70822;51.990;22.766;2023-12-20T11:44:44;6.30;87.60
81366;DHT22;70822;51.990;22.766;2023-12-20T11:59:49;6.40;87.90
81366;DHT22;70822;51.990;22.766;2023-12-20T12:14:54;6.30;87.80
81366;DHT22;70822;51.990;22.766;2023-12-20T12:30:05;6.50;87.50
81366;DHT22;70822;51.990;22.766;2023-12-20T12:45:14;6.20;87.20
81366;DHT22;70822;51.990;22.766;2023-12-20T13:00:19;5.90;87.50
81366;DHT22;70822;51.990;22.766;2023-12-20T13:15:25;5.80;87.80
81366;DHT22;70822;51.990;22.766;2023-12-20T13:30:30;5.70;88.00
81366;DHT22;70822;51.990;22.766;2023-12-20T13:45:35;5.90;87.90
81366;DHT22;70822;51.990;22.766;2023-12-20T14:00:40;5.80;88.00
81366;DHT22;70822;51.990;22.766;2023-12-20T14:15:46;5.50;88.10
81366;DHT22;70822;51.990;22.766;2023-12-20T14:30:51;5.50;88.10
81366;DHT22;70822;51.990;22.766;2023-12-20T14:45:57;5.50;87.90
81366;DHT22;70822;51.990;22.766;2023-12-20T15:01:02;5.20;88.40
81366;DHT22;70822;51.990;22.766;2023-12-20T15:16:09;5.20;88.10
81366;DHT22;70822;51.990;22.766;2023-12-20T15:31:14;4.90;88.10
81366;DHT22;70822;51.990;22.766;2023-12-20T15:46:19;5.00;88.00
81366;DHT22;70822;51.990;22.766;2023-12-20T16:01:24;4.90;88.00
81366;DHT22;70822;51.990;22.766;2023-12-20T16:16:29;4.50;88.20
81366;DHT22;70822;51.990;22.766;2023-12-20T16:31:35;4.60;88.30
81366;DHT22;70822;51.990;22.766;2023-12-20T16:46:43;4.70;88.00
81366;DHT22;70822;51.990;22.766;2023-12-20T17:01:50;4.40;88.10
81366;DHT22;70822;51.990;22.766;2023-12-20T17:16:58;4.40;87.70
81366;DHT22;70822;51.990;22.766;2023-12-20T17:32:04;4.30;87.70
81366;DHT22;70822;51.990;22.766;2023-12-20T17:47:09;4.10;87.90
81366;DHT22;70822;51.990;22.766;2023-12-20T18:02:14;4.40;88.20
81366;DHT22;70822;51.990;22.766;2023-12-20T18:17:25;4.30;87.90
81366;DHT22;70822;51.990;22.766;2023-12-20T18:32:36;4.60;88.00
81366;DHT22;70822;51.990;22.766;2023-12-20T18:47:44;4.40;88.00
81366;DHT22;70822;51.990;22.766;2023-12-20T19:02:53;4.30;87.80
81366;DHT22;70822;51.990;22.766;2023-12-20T19:17:59;4.40;87.60
81366;DHT22;70822;51.990;22.766;2023-12-20T19:33:04;4.50;87.60
81366;DHT22;70822;51.990;22.766;2023-12-20T19:48:09;4.50;86.90
81366;DHT22;70822;51.990;22.766;2023-12-20T20:03:15;4.20;86.40
81366;DHT22;70822;51.990;22.766;2023-12-20T20:18:19;4.30;86.70
81366;DHT22;70822;51.990;22.766;2023-12-20T20:33:26;4.30;86.70
81366;DHT22;70822;51.990;22.766;2023-12-20T20:48:32;4.20;87.10
81366;DHT22;70822;51.990;22.766;2023-12-20T21:03:41;4.20;87.60
81366;DHT22;70822;51.990;22.766;2023-12-20T21:18:46;4.20;87.80
81366;DHT22;70822;51.990;22.766;2023-12-20T21:33:51;4.20;88.00
81366;DHT22;70822;51.990;22.766;2023-12-20T21:48:56;4.20;88.10
81366;DHT22;70822;51.990;22.766;2023-12-20T22:04:01;4.20;87.10
81366;DHT22;70822;51.990;22.766;2023-12-20T22:19:07;3.90;86.30
81366;DHT22;70822;51.990;22.766;2023-12-20T22:34:12;3.90;86.10
81366;DHT22;70822;51.990;22.766;2023-12-20T22:49:17;3.70;85.90
81366;DHT22;70822;51.990;22.766;2023-12-20T23:04:23;3.60;85.60
81366;DHT22;70822;51.990;22.766;2023-12-20T23:19:27;3.50;85.50
81366;DHT22;70822;51.990;22.766;2023-12-20T23:34:33;3.50;85.90
81366;DHT22;70822;51.990;22.766;2023-12-20T23:49:40;3.40;85.40
